Blackstone River @ Millbury, Ma

Blackstone River at Millbury
 Total Drainage Area: 71 sq. miles 
 Drainage Area Controlled by Corps Dams: 0 sq. miles (0%) 
 Warning Flow/Stage: 820 cfs / 4.0 feet 
 Flood Flow/Stage: 1,970 cfs / 6.5 feet 
Date Time
(Eastern)
Stage
(ft)
Flow
(cfs)
CSM
(cfs / sq. mi.)
Jun-16 10:00 pm 1.88 88 1.2
Jun-16 09:00 pm 1.88 88 1.2
Jun-16 08:00 pm 1.89 90 1.3
Jun-16 07:00 pm 1.90 91 1.3
Jun-16 06:00 pm 1.91 93 1.3
Jun-16 05:00 pm 1.93 96 1.4
Jun-16 04:00 pm 1.93 96 1.4
Jun-16 03:00 pm 1.93 96 1.4
Jun-16 02:00 pm 1.93 96 1.4
Jun-16 01:00 pm 1.92 94 1.3
Jun-16 12:00 pm 1.89 90 1.3
Jun-16 11:00 am 1.87 87 1.2
Jun-16 10:00 am 1.83 81 1.1
Jun-16 09:00 am 1.82 79 1.1
Jun-16 08:00 am 1.82 79 1.1
Jun-16 07:00 am 1.83 81 1.1
Jun-16 06:00 am 1.85 84 1.2
Jun-16 05:00 am 1.87 87 1.2
Jun-16 04:00 am 1.89 90 1.3
Jun-16 03:00 am 1.92 94 1.3
Jun-16 02:00 am 1.95 99 1.4
Jun-16 01:00 am 1.97 103 1.4
Jun-16 12:00 am 1.98 104 1.5
Jun-15 11:00 pm 1.98 104 1.5
Jun-15 10:00 pm 1.99 106 1.5
Report Generated June 16, 2024 10:13 pm